Time;durP1;ratioP1;P1;durP2;ratioP2;P2;SDS_P1;SDS_P2;PMS_P1;PMS_P2;Temp;Humidity;BMP_temperature;BMP_pressure;BME280_temperature;BME280_humidity;BME280_pressure;Samples;Min_cycle;Max_cycle;Signal;HPM_P1;HPM_P2
2023/05/06 00:01:42;;;;;;;1999.90;999.90;;;15.20;99.90;;;;;;5069797;28;20431;-73
2023/05/06 00:04:09;;;;;;;1999.90;999.90;;;15.10;99.90;;;;;;5083794;28;20495;-72
2023/05/06 00:06:35;;;;;;;1999.90;999.90;;;14.90;99.90;;;;;;5080674;28;20423;-73
2023/05/06 00:09:02;;;;;;;1999.90;999.90;;;14.80;99.90;;;;;;5079197;28;20427;-73
2023/05/06 00:11:29;;;;;;;1999.90;999.90;;;15.00;99.90;;;;;;5069515;28;20485;-73
2023/05/06 00:13:56;;;;;;;1999.90;999.90;;;14.90;99.90;;;;;;5082366;28;20472;-70
2023/05/06 00:16:24;;;;;;;1999.90;999.90;;;14.90;99.90;;;;;;5076437;28;20481;-72
2023/05/06 00:18:50;;;;;;;1999.90;999.90;;;14.60;99.90;;;;;;5074564;28;20484;-73
2023/05/06 00:21:17;;;;;;;1999.90;999.90;;;14.70;99.90;;;;;;5073474;28;20465;-73
2023/05/06 00:23:44;;;;;;;1999.90;999.90;;;14.80;99.90;;;;;;5070042;28;20509;-73
2023/05/06 00:26:10;;;;;;;1999.90;999.90;;;14.80;99.90;;;;;;5083128;28;20521;-73
2023/05/06 00:28:37;;;;;;;1999.90;999.90;;;14.90;99.90;;;;;;5075639;28;20432;-72
2023/05/06 00:31:04;;;;;;;1999.90;999.90;;;14.90;99.90;;;;;;5077335;28;20431;-72
2023/05/06 00:33:32;;;;;;;1999.90;999.90;;;15.10;99.90;;;;;;5073048;28;20442;-72
2023/05/06 00:35:58;;;;;;;1999.90;999.90;;;15.20;99.90;;;;;;5076730;28;20430;-73
2023/05/06 00:38:25;;;;;;;1999.90;999.90;;;15.30;99.90;;;;;;5076649;28;20787;-72
2023/05/06 00:40:51;;;;;;;1999.90;999.90;;;15.40;99.90;;;;;;5081280;28;20440;-72
2023/05/06 00:43:18;;;;;;;1999.90;999.90;;;15.50;99.90;;;;;;5074839;28;20425;-73
2023/05/06 00:45:45;;;;;;;1999.90;999.90;;;15.30;99.90;;;;;;5070476;28;20434;-73
2023/05/06 00:48:12;;;;;;;1999.90;999.90;;;15.30;99.90;;;;;;5082714;28;20938;-72
2023/05/06 00:50:40;;;;;;;1999.90;999.90;;;15.40;99.90;;;;;;5081613;28;20523;-71
2023/05/06 00:53:09;;;;;;;1999.90;999.90;;;15.30;99.90;;;;;;5078207;28;20426;-73
2023/05/06 00:55:36;;;;;;;1999.90;999.90;;;15.20;99.90;;;;;;5067521;28;20473;-72
2023/05/06 00:58:03;;;;;;;1999.90;999.90;;;14.80;99.90;;;;;;5074330;28;20427;-71
2023/05/06 01:00:30;;;;;;;1999.90;999.90;;;15.00;99.90;;;;;;5077851;28;20489;-73
2023/05/06 01:02:56;;;;;;;1999.90;999.90;;;14.90;99.90;;;;;;5076425;28;20440;-72
2023/05/06 01:05:28;;;;;;;1999.90;999.90;;;14.80;99.90;;;;;;5077368;28;20421;-72
2023/05/06 01:08:03;;;;;;;1999.90;999.90;;;14.60;99.90;;;;;;5071341;28;20996;-70
2023/05/06 01:10:35;;;;;;;1999.90;999.90;;;14.70;99.90;;;;;;5068700;28;20431;-74
2023/05/06 01:13:11;;;;;;;1999.90;999.90;;;14.60;99.90;;;;;;5077018;28;20487;-73
2023/05/06 01:15:44;;;;;;;1999.90;999.90;;;14.60;99.90;;;;;;5073913;28;20481;-73
2023/05/06 01:18:16;;;;;;;1999.90;999.90;;;14.70;99.90;;;;;;5074060;28;20480;-72
2023/05/06 01:20:48;;;;;;;1999.90;999.90;;;14.90;99.90;;;;;;5079169;28;20425;-73
2023/05/06 01:23:16;;;;;;;1999.90;999.90;;;14.90;99.90;;;;;;5077240;28;20475;-72
2023/05/06 01:25:43;;;;;;;1999.90;999.90;;;14.90;99.90;;;;;;5078892;28;20428;-72
2023/05/06 01:28:11;;;;;;;1999.90;999.90;;;15.20;99.90;;;;;;5075631;28;20433;-67
2023/05/06 01:30:46;;;;;;;1999.90;999.90;;;14.90;99.90;;;;;;5067456;28;20438;-71
2023/05/06 01:33:18;;;;;;;1999.90;999.90;;;14.80;99.90;;;;;;5077015;28;20483;-72
2023/05/06 01:35:54;;;;;;;1999.90;999.90;;;14.80;99.90;;;;;;5074152;28;20473;-72
2023/05/06 01:38:30;;;;;;;1999.90;999.90;;;14.80;99.90;;;;;;5090154;28;20512;-72
2023/05/06 01:40:58;;;;;;;1999.90;999.90;;;14.90;99.90;;;;;;5089099;28;20434;-72
2023/05/06 01:43:28;;;;;;;1999.90;999.90;;;14.90;99.90;;;;;;5085585;28;20428;-69
2023/05/06 01:45:56;;;;;;;1999.90;999.90;;;14.70;99.90;;;;;;5088655;28;20474;-68
2023/05/06 01:48:26;;;;;;;1999.90;999.90;;;14.60;99.90;;;;;;5076937;28;20479;-69
2023/05/06 01:50:53;;;;;;;1999.90;999.90;;;14.40;99.90;;;;;;5070358;28;20427;-70
2023/05/06 01:53:19;;;;;;;1999.90;999.90;;;14.20;99.90;;;;;;5070158;28;20435;-71
2023/05/06 01:55:47;;;;;;;1999.90;999.90;;;14.10;99.90;;;;;;5078572;28;20433;-71
2023/05/06 01:58:14;;;;;;;1999.90;999.90;;;14.00;99.90;;;;;;5076280;28;20417;-70
2023/05/06 02:00:41;;;;;;;1999.90;999.90;;;13.90;99.90;;;;;;5068454;28;20428;-72
2023/05/06 02:03:08;;;;;;;1999.90;999.90;;;13.80;99.90;;;;;;5079668;28;20500;-71
2023/05/06 02:05:34;;;;;;;1999.90;999.90;;;13.70;99.90;;;;;;5071930;28;20435;-70
2023/05/06 02:08:01;;;;;;;1999.90;999.90;;;13.60;99.90;;;;;;5081144;28;20427;-72
2023/05/06 02:10:28;;;;;;;1999.90;999.90;;;13.40;99.90;;;;;;5073850;28;20433;-70
2023/05/06 02:12:56;;;;;;;1999.90;999.90;;;13.40;99.90;;;;;;5069439;28;20497;-68
2023/05/06 02:15:22;;;;;;;1999.90;999.90;;;13.40;99.90;;;;;;5069534;28;20480;-70
2023/05/06 02:17:49;;;;;;;1999.90;999.90;;;13.30;99.90;;;;;;5080506;28;20427;-70
2023/05/06 02:20:16;;;;;;;1999.90;999.90;;;13.30;99.90;;;;;;5078617;28;20430;-68
2023/05/06 02:22:42;;;;;;;1999.90;999.90;;;13.30;99.90;;;;;;5081544;28;20578;-71
2023/05/06 02:25:09;;;;;;;1999.90;999.90;;;13.30;99.90;;;;;;5073852;28;20427;-70
2023/05/06 02:27:36;;;;;;;1999.90;999.90;;;13.30;99.90;;;;;;5072401;28;20431;-70
2023/05/06 02:30:05;;;;;;;1999.90;999.90;;;13.30;99.90;;;;;;5080183;28;20455;-71
2023/05/06 02:32:32;;;;;;;1999.90;999.90;;;13.30;99.90;;;;;;5083825;28;20421;-71
2023/05/06 02:34:58;;;;;;;1999.90;999.90;;;13.30;99.90;;;;;;5076907;28;20954;-68
2023/05/06 02:37:25;;;;;;;1999.90;999.90;;;13.30;99.90;;;;;;5072410;28;20929;-70
2023/05/06 02:39:51;;;;;;;1999.90;999.90;;;13.30;99.90;;;;;;5073686;28;20430;-71
2023/05/06 02:42:19;;;;;;;1999.90;999.90;;;13.40;99.90;;;;;;5074821;28;20492;-69
2023/05/06 02:44:46;;;;;;;1999.90;999.90;;;13.40;99.90;;;;;;5080819;28;20455;-72
2023/05/06 02:47:14;;;;;;;1999.90;999.90;;;13.40;99.90;;;;;;5072644;28;20423;-69
2023/05/06 02:49:41;;;;;;;1999.90;999.90;;;13.40;99.90;;;;;;5068281;28;20430;-67
2023/05/06 02:52:07;;;;;;;1999.90;999.90;;;13.50;99.90;;;;;;5083752;28;20864;-71
2023/05/06 02:54:34;;;;;;;1999.90;999.90;;;13.50;99.90;;;;;;5076949;28;20475;-69
2023/05/06 02:57:01;;;;;;;1999.90;999.90;;;13.40;99.90;;;;;;5080064;28;20988;-69
2023/05/06 02:59:28;;;;;;;1999.90;999.90;;;13.40;99.90;;;;;;5074054;28;20425;-69
2023/05/06 03:01:55;;;;;;;1999.90;999.90;;;13.40;99.90;;;;;;5072044;28;20431;-71
2023/05/06 03:04:23;;;;;;;1999.90;999.90;;;13.30;99.90;;;;;;5084858;28;20807;-69
2023/05/06 03:06:50;;;;;;;1999.90;999.90;;;13.40;99.90;;;;;;5079834;28;20905;-70
2023/05/06 03:09:16;;;;;;;1999.90;999.90;;;13.30;99.90;;;;;;5071997;28;20440;-73
2023/05/06 03:11:44;;;;;;;1999.90;999.90;;;13.20;99.90;;;;;;5071071;28;20511;-70
2023/05/06 03:14:11;;;;;;;1999.90;999.90;;;13.20;99.90;;;;;;5077914;28;20425;-72
2023/05/06 03:16:37;;;;;;;1999.90;999.90;;;13.10;99.90;;;;;;5076826;28;20490;-70
2023/05/06 03:19:04;;;;;;;1999.90;999.90;;;13.10;99.90;;;;;;5081017;28;20423;-67
2023/05/06 03:21:32;;;;;;;1999.90;999.90;;;13.10;99.90;;;;;;5074501;28;20491;-69
2023/05/06 03:23:59;;;;;;;1999.90;999.90;;;13.00;99.90;;;;;;5072283;28;20439;-70
2023/05/06 03:26:25;;;;;;;1999.90;999.90;;;12.90;99.90;;;;;;5077652;28;20914;-72
2023/05/06 03:28:52;;;;;;;1999.90;999.90;;;12.90;99.90;;;;;;5080498;28;20504;-70
2023/05/06 03:31:19;;;;;;;1999.90;999.90;;;12.90;99.90;;;;;;5078233;28;20431;-69
2023/05/06 03:33:45;;;;;;;1999.90;999.90;;;12.90;99.90;;;;;;5070659;28;20428;-70
2023/05/06 03:36:12;;;;;;;1999.90;999.90;;;12.90;99.90;;;;;;5077927;28;20873;-71
2023/05/06 03:38:40;;;;;;;1999.90;999.90;;;12.80;99.90;;;;;;5081755;28;20439;-70
2023/05/06 03:41:08;;;;;;;1999.90;999.90;;;12.70;99.90;;;;;;5065743;28;20971;-67
2023/05/06 03:43:34;;;;;;;1999.90;999.90;;;12.70;99.90;;;;;;5076580;28;20495;-69
2023/05/06 03:46:01;;;;;;;1999.90;999.90;;;12.70;99.90;;;;;;5070000;28;20797;-70
2023/05/06 03:48:28;;;;;;;1999.90;999.90;;;12.70;99.90;;;;;;5077158;28;20430;-70
2023/05/06 03:50:54;;;;;;;1999.90;999.90;;;12.70;99.90;;;;;;5069052;28;20446;-70
2023/05/06 03:53:21;;;;;;;1999.90;999.90;;;12.80;99.90;;;;;;5081429;28;20429;-71
2023/05/06 03:55:49;;;;;;;1999.90;999.90;;;12.90;99.90;;;;;;5075153;28;20427;-70
2023/05/06 03:58:16;;;;;;;1999.90;999.90;;;12.80;99.90;;;;;;5070096;28;20510;-69
2023/05/06 04:00:43;;;;;;;1999.90;999.90;;;12.90;99.90;;;;;;5077310;28;20423;-70
2023/05/06 04:03:09;;;;;;;1999.90;999.90;;;12.90;99.90;;;;;;5083663;28;20502;-70
2023/05/06 04:05:36;;;;;;;1999.90;999.90;;;13.00;99.90;;;;;;5074381;28;20508;-71
2023/05/06 04:08:03;;;;;;;1999.90;999.90;;;12.90;99.90;;;;;;5073272;28;20481;-70
2023/05/06 04:10:29;;;;;;;1999.90;999.90;;;13.10;99.90;;;;;;5068040;28;20558;-73
2023/05/06 04:12:58;;;;;;;1999.90;999.90;;;13.10;99.90;;;;;;5084915;28;20436;-70
2023/05/06 04:15:24;;;;;;;1999.90;999.90;;;13.10;99.90;;;;;;5080007;28;20425;-69
2023/05/06 04:17:51;;;;;;;1999.90;999.90;;;13.20;99.90;;;;;;5074031;28;20471;-70
2023/05/06 04:20:18;;;;;;;1999.90;999.90;;;13.20;99.90;;;;;;5071525;28;20477;-72
2023/05/06 04:22:45;;;;;;;1999.90;999.90;;;13.20;99.90;;;;;;5078904;28;20423;-70
2023/05/06 04:25:11;;;;;;;1999.90;999.90;;;13.10;99.90;;;;;;5082233;28;20454;-69
2023/05/06 04:27:38;;;;;;;1999.90;999.90;;;13.10;99.90;;;;;;5082826;28;20907;-70
2023/05/06 04:30:07;;;;;;;1999.90;999.90;;;13.10;99.90;;;;;;5074291;28;20423;-71
2023/05/06 04:32:35;;;;;;;1999.90;999.90;;;13.10;99.90;;;;;;5070600;28;20439;-71
2023/05/06 04:35:02;;;;;;;1999.90;999.90;;;13.00;99.90;;;;;;5085432;28;20455;-72
2023/05/06 04:37:29;;;;;;;1999.90;999.90;;;13.10;99.90;;;;;;5080854;28;20943;-70
2023/05/06 04:39:56;;;;;;;1999.90;999.90;;;13.10;99.90;;;;;;5074079;28;20778;-71
2023/05/06 04:42:23;;;;;;;1999.90;999.90;;;13.00;99.90;;;;;;5069024;28;20450;-70
2023/05/06 04:44:50;;;;;;;1999.90;999.90;;;13.00;99.90;;;;;;5068418;28;20433;-70
2023/05/06 04:47:18;;;;;;;1999.90;999.90;;;13.00;99.90;;;;;;5074911;28;20468;-70
2023/05/06 04:49:44;;;;;;;1999.90;999.90;;;13.10;99.90;;;;;;5068559;28;20480;-71
2023/05/06 04:52:11;;;;;;;1999.90;999.90;;;13.00;99.90;;;;;;5073428;28;20431;-70
2023/05/06 04:54:38;;;;;;;1999.90;999.90;;;12.90;99.90;;;;;;5069132;28;20465;-69
2023/05/06 04:57:04;;;;;;;1999.90;999.90;;;13.00;99.90;;;;;;5073855;28;20425;-70
2023/05/06 04:59:31;;;;;;;1999.90;999.90;;;13.00;99.90;;;;;;5077150;28;20430;-72
2023/05/06 05:01:57;;;;;;;1999.90;999.90;;;13.00;99.90;;;;;;5075624;28;20492;-70
2023/05/06 05:04:26;;;;;;;1999.90;999.90;;;13.10;99.90;;;;;;5074996;28;20431;-70
2023/05/06 05:06:52;;;;;;;1999.90;999.90;;;13.10;99.90;;;;;;5072136;28;20422;-71
2023/05/06 05:09:19;;;;;;;1999.90;999.90;;;13.20;99.90;;;;;;5080636;28;20435;-70
2023/05/06 05:11:46;;;;;;;1999.90;999.90;;;13.20;99.90;;;;;;5077665;28;20432;-70
2023/05/06 05:14:12;;;;;;;1999.90;999.90;;;13.30;99.90;;;;;;5067087;28;20431;-70
2023/05/06 05:16:39;;;;;;;1999.90;999.90;;;13.50;99.90;;;;;;5073997;28;20843;-70
2023/05/06 05:19:06;;;;;;;1999.90;999.90;;;13.50;99.90;;;;;;5087546;28;20475;-70
2023/05/06 05:21:34;;;;;;;1999.90;999.90;;;13.60;99.90;;;;;;5072212;28;20434;-71
2023/05/06 05:24:00;;;;;;;1999.90;999.90;;;13.70;99.90;;;;;;5077944;28;20520;-70
2023/05/06 05:26:27;;;;;;;1999.90;999.90;;;13.60;99.90;;;;;;5073638;28;20472;-71
2023/05/06 05:28:53;;;;;;;1999.90;999.90;;;13.60;99.90;;;;;;5071977;28;20431;-69
2023/05/06 05:31:20;;;;;;;1999.90;999.90;;;13.60;99.90;;;;;;5071361;28;20435;-69
2023/05/06 05:33:47;;;;;;;1999.90;999.90;;;13.40;99.90;;;;;;5074438;28;21102;-70
2023/05/06 05:36:14;;;;;;;1999.90;999.90;;;13.40;99.90;;;;;;5085294;28;20434;-72
2023/05/06 05:38:42;;;;;;;1999.90;999.90;;;13.40;99.90;;;;;;5069836;28;20921;-70
2023/05/06 05:41:08;;;;;;;1999.90;999.90;;;13.40;99.90;;;;;;5066932;28;20917;-71
2023/05/06 05:43:35;;;;;;;1999.90;999.90;;;13.40;99.90;;;;;;5100861;22;20808;-70
2023/05/06 05:46:02;;;;;;;1999.90;999.90;;;13.30;99.90;;;;;;5087509;28;20844;-71
2023/05/06 05:48:30;;;;;;;1999.90;999.90;;;13.30;99.90;;;;;;5086351;28;20433;-71
2023/05/06 05:50:56;;;;;;;1999.90;999.90;;;13.30;99.90;;;;;;5089333;28;20930;-71
2023/05/06 05:53:23;;;;;;;1999.90;999.90;;;13.40;99.90;;;;;;5080112;28;20437;-71
2023/05/06 05:55:51;;;;;;;1999.90;999.90;;;13.30;99.90;;;;;;5069600;28;20848;-69
2023/05/06 05:58:18;;;;;;;1999.90;999.90;;;13.30;99.90;;;;;;5070650;28;20489;-70
2023/05/06 06:00:44;;;;;;;1999.90;999.90;;;13.20;99.90;;;;;;5071892;28;20431;-73
2023/05/06 06:03:11;;;;;;;1999.90;999.90;;;13.20;99.90;;;;;;5071850;28;20427;-73
2023/05/06 06:05:38;;;;;;;1999.90;999.90;;;13.10;99.90;;;;;;5071127;28;21012;-73
2023/05/06 06:08:05;;;;;;;1999.90;999.90;;;13.10;99.90;;;;;;5071933;28;20424;-73
2023/05/06 06:10:32;;;;;;;1999.90;999.90;;;13.10;99.90;;;;;;5071779;28;20845;-74
2023/05/06 06:13:00;;;;;;;1999.90;999.90;;;13.20;99.90;;;;;;5071990;28;20564;-70
2023/05/06 06:15:26;;;;;;;1999.90;999.90;;;13.20;99.90;;;;;;5071633;28;20851;-71
2023/05/06 06:17:53;;;;;;;1999.90;999.90;;;13.40;99.90;;;;;;5067341;28;20461;-71
2023/05/06 06:20:20;;;;;;;1999.90;999.90;;;13.40;99.90;;;;;;5065806;28;20521;-71
2023/05/06 06:22:47;;;;;;;1999.90;999.90;;;13.50;99.90;;;;;;5063304;28;20469;-74
2023/05/06 06:25:13;;;;;;;1999.90;999.90;;;13.50;99.90;;;;;;5067038;28;20481;-71
2023/05/06 06:27:40;;;;;;;1999.90;999.90;;;13.60;99.90;;;;;;5070115;28;20804;-72
2023/05/06 06:30:09;;;;;;;1999.90;999.90;;;13.70;99.90;;;;;;5071930;28;20438;-71
2023/05/06 06:32:38;;;;;;;1999.90;999.90;;;13.80;99.90;;;;;;5068216;28;20922;-71
2023/05/06 06:35:06;;;;;;;1999.90;999.90;;;13.80;99.90;;;;;;5070502;28;20435;-71
2023/05/06 06:37:33;;;;;;;1999.90;999.90;;;13.80;99.90;;;;;;5069688;28;20431;-72
2023/05/06 06:39:59;;;;;;;1999.90;999.90;;;13.70;99.90;;;;;;5071705;28;20435;-74
2023/05/06 06:42:26;;;;;;;1999.90;999.90;;;13.90;99.90;;;;;;5070412;28;20979;-72
2023/05/06 06:44:52;;;;;;;1999.90;999.90;;;13.90;99.90;;;;;;5070556;28;20435;-73
2023/05/06 06:47:21;;;;;;;1999.90;999.90;;;13.80;99.90;;;;;;5066135;28;20431;-73
2023/05/06 06:49:47;;;;;;;1999.90;999.90;;;13.80;99.90;;;;;;5071274;28;20435;-74
2023/05/06 06:52:14;;;;;;;1999.90;999.90;;;13.70;99.90;;;;;;5071045;28;20971;-74
2023/05/06 06:54:40;;;;;;;1999.90;999.90;;;13.70;99.90;;;;;;5070146;28;20917;-73
2023/05/06 06:57:07;;;;;;;1999.90;999.90;;;13.60;99.90;;;;;;5069530;28;20460;-74
2023/05/06 06:59:34;;;;;;;1999.90;999.90;;;13.50;99.90;;;;;;5070149;28;20496;-74
2023/05/06 07:02:01;;;;;;;1999.90;999.90;;;13.50;99.90;;;;;;5069142;28;20974;-73
2023/05/06 07:04:29;;;;;;;1999.90;999.90;;;13.50;99.90;;;;;;5069834;28;20465;-74
2023/05/06 07:06:56;;;;;;;1999.90;999.90;;;13.50;99.90;;;;;;5062000;28;20427;-73
2023/05/06 07:09:23;;;;;;;1999.90;999.90;;;13.50;99.90;;;;;;5070221;28;20835;-74
2023/05/06 07:11:49;;;;;;;1999.90;999.90;;;13.60;99.90;;;;;;5070109;28;20435;-72
2023/05/06 07:14:16;;;;;;;1999.90;999.90;;;13.60;99.90;;;;;;5072655;28;20411;-73
2023/05/06 07:16:43;;;;;;;1999.90;999.90;;;13.60;99.90;;;;;;5063750;28;20513;-73
2023/05/06 07:19:09;;;;;;;1999.90;999.90;;;13.50;99.90;;;;;;5084403;28;20467;-73
2023/05/06 07:21:37;;;;;;;1999.90;999.90;;;13.50;99.90;;;;;;5092918;28;20462;-73
2023/05/06 07:24:04;;;;;;;1999.90;999.90;;;13.60;99.90;;;;;;5092558;28;20964;-73
2023/05/06 07:26:30;;;;;;;1999.90;999.90;;;13.50;99.90;;;;;;5085785;28;20431;-73
2023/05/06 07:28:57;;;;;;;1999.90;999.90;;;13.60;99.90;;;;;;5072746;28;20457;-73
2023/05/06 07:31:24;;;;;;;1999.90;999.90;;;13.70;99.90;;;;;;5072497;28;20408;-74
2023/05/06 07:33:50;;;;;;;1999.90;999.90;;;13.80;99.90;;;;;;5072237;28;20419;-73
2023/05/06 07:36:17;;;;;;;1999.90;999.90;;;13.90;99.90;;;;;;5071491;28;20855;-73
2023/05/06 07:38:45;;;;;;;1999.90;999.90;;;14.00;99.90;;;;;;5081991;28;20427;-73
2023/05/06 07:41:12;;;;;;;1999.90;999.90;;;14.10;99.90;;;;;;5092443;28;20410;-71
2023/05/06 07:43:38;;;;;;;1999.90;999.90;;;14.20;99.90;;;;;;5092070;28;20819;-73
2023/05/06 07:46:05;;;;;;;1999.90;999.90;;;14.40;99.90;;;;;;5089464;28;20479;-73
2023/05/06 07:48:32;;;;;;;1999.90;999.90;;;14.30;99.90;;;;;;5080394;28;20407;-72
2023/05/06 07:51:00;;;;;;;1999.90;999.90;;;14.30;99.90;;;;;;5066615;28;20994;-72
2023/05/06 07:53:27;;;;;;;1999.90;999.90;;;14.10;99.90;;;;;;5068307;28;20856;-73
2023/05/06 07:56:00;;;;;;;1999.90;999.90;;;14.10;99.90;;;;;;5064134;28;20437;-72
2023/05/06 07:58:27;;;;;;;1999.90;999.90;;;14.10;99.90;;;;;;5069238;28;20462;-73
2023/05/06 08:00:54;;;;;;;1999.90;999.90;;;14.20;99.90;;;;;;5057923;28;20438;-72
2023/05/06 08:03:20;;;;;;;1999.90;999.90;;;14.20;99.90;;;;;;5068759;28;20431;-73
2023/05/06 08:05:47;;;;;;;1999.90;999.90;;;14.40;99.90;;;;;;5070794;28;20427;-73
2023/05/06 08:08:14;;;;;;;1999.90;999.90;;;14.40;99.90;;;;;;5076303;28;20422;-73
2023/05/06 08:10:40;;;;;;;1999.90;999.90;;;14.50;99.90;;;;;;5074254;28;20418;-73
2023/05/06 08:13:08;;;;;;;1999.90;999.90;;;14.60;99.90;;;;;;5070921;28;20438;-73
2023/05/06 08:15:35;;;;;;;1999.90;999.90;;;14.40;99.90;;;;;;5070360;28;20428;-73
2023/05/06 08:18:02;;;;;;;1999.90;999.90;;;14.40;99.90;;;;;;5069290;28;20428;-74
2023/05/06 08:20:28;;;;;;;1999.90;999.90;;;14.40;99.90;;;;;;5079091;28;20743;-73
2023/05/06 08:22:55;;;;;;;1999.90;999.90;;;14.60;99.90;;;;;;5091097;28;20406;-73
2023/05/06 08:25:22;;;;;;;1999.90;999.90;;;14.90;99.90;;;;;;5092028;28;20406;-73
2023/05/06 08:27:48;;;;;;;1999.90;999.90;;;15.20;99.90;;;;;;5085162;28;20427;-74
2023/05/06 08:30:16;;;;;;;1999.90;999.90;;;15.40;99.90;;;;;;5082842;28;20410;-73
2023/05/06 08:32:43;;;;;;;1999.90;999.90;;;15.50;99.90;;;;;;5068555;28;20435;-74
2023/05/06 08:35:10;;;;;;;1999.90;999.90;;;15.40;99.90;;;;;;5066939;28;20466;-70
2023/05/06 08:37:36;;;;;;;1999.90;999.90;;;15.70;99.90;;;;;;5069162;28;20998;-72
2023/05/06 08:40:05;;;;;;;1999.90;999.90;;;15.80;99.90;;;;;;5070972;28;20415;-71
2023/05/06 08:42:36;;;;;;;1999.90;999.90;;;15.70;99.90;;;;;;5071106;28;20447;-73
2023/05/06 08:45:03;;;;;;;1999.90;999.90;;;15.70;99.90;;;;;;5070920;28;20416;-73
2023/05/06 08:47:31;;;;;;;1999.90;999.90;;;15.90;99.90;;;;;;5077403;28;20485;-71
2023/05/06 08:49:57;;;;;;;1999.90;999.90;;;16.20;99.90;;;;;;5067370;28;20432;-73
2023/05/06 08:52:24;;;;;;;1999.90;999.90;;;16.40;99.90;;;;;;5065670;28;20412;-73
2023/05/06 08:54:53;;;;;;;1999.90;999.90;;;16.70;99.90;;;;;;5070732;28;20412;-73
2023/05/06 08:57:21;;;;;;;1999.90;999.90;;;17.00;99.90;;;;;;5069760;28;20431;-72
2023/05/06 08:59:47;;;;;;;1999.90;999.90;;;17.40;99.90;;;;;;5079108;28;20416;-73
2023/05/06 09:02:15;;;;;;;1999.90;999.90;;;17.60;99.90;;;;;;5070577;28;20415;-73
2023/05/06 09:04:44;;;;;;;1999.90;999.90;;;17.70;99.90;;;;;;5070796;28;20411;-73
2023/05/06 09:07:10;;;;;;;1999.90;999.90;;;17.80;99.90;;;;;;5064289;28;20520;-70
2023/05/06 09:09:37;;;;;;;1999.90;999.90;;;17.60;99.90;;;;;;5067094;28;20411;-73
2023/05/06 09:12:05;;;;;;;1999.90;999.90;;;17.80;99.90;;;;;;5070574;28;20841;-70
2023/05/06 09:14:32;;;;;;;1999.90;999.90;;;17.80;99.90;;;;;;5070449;28;20415;-73
2023/05/06 09:16:59;;;;;;;1999.90;999.90;;;18.20;99.90;;;;;;5069619;28;20423;-71
2023/05/06 09:19:27;;;;;;;1999.90;999.90;;;18.30;99.90;;;;;;5078518;28;20836;-73
2023/05/06 09:21:55;;;;;;;1999.90;999.90;;;18.10;99.90;;;;;;5066584;28;20492;-73
2023/05/06 09:24:23;;;;;;;1999.90;999.90;;;18.10;99.90;;;;;;5067485;28;20457;-73
2023/05/06 09:26:53;;;;;;;1999.90;999.90;;;17.80;99.90;;;;;;5067106;28;20920;-72
2023/05/06 09:29:20;;;;;;;1999.90;999.90;;;17.60;99.90;;;;;;5056009;28;20811;-73
2023/05/06 09:31:48;;;;;;;1999.90;999.90;;;17.70;99.90;;;;;;5063992;28;20428;-71
2023/05/06 09:34:16;;;;;;;1999.90;999.90;;;18.10;99.90;;;;;;5064534;28;20439;-73
2023/05/06 09:36:43;;;;;;;1999.90;999.90;;;18.30;99.90;;;;;;5062577;28;20482;-73
2023/05/06 09:39:11;;;;;;;1999.90;999.90;;;18.50;99.90;;;;;;5056748;28;20421;-73
2023/05/06 09:41:38;;;;;;;1999.90;999.90;;;18.30;99.90;;;;;;5053466;28;20449;-71
2023/05/06 09:44:05;;;;;;;1999.90;999.90;;;18.30;99.90;;;;;;5059372;28;20427;-73
2023/05/06 09:46:32;;;;;;;1999.90;999.90;;;18.20;99.90;;;;;;5066513;28;20921;-73
2023/05/06 09:49:00;;;;;;;1999.90;999.90;;;17.90;99.90;;;;;;5063698;28;20501;-74
2023/05/06 09:51:27;;;;;;;1999.90;999.90;;;17.90;99.90;;;;;;5066649;28;20431;-73
2023/05/06 09:53:55;;;;;;;1999.90;999.90;;;17.80;99.90;;;;;;5066980;28;20599;-71
2023/05/06 09:56:24;;;;;;;1999.90;999.90;;;17.70;99.90;;;;;;5062340;28;20427;-70
2023/05/06 09:58:52;;;;;;;1999.90;999.90;;;17.60;99.90;;;;;;5068401;28;20514;-73
2023/05/06 10:01:19;;;;;;;1999.90;999.90;;;17.70;99.90;;;;;;5061913;28;20415;-73
2023/05/06 10:03:46;;;;;;;1999.90;999.90;;;17.70;99.90;;;;;;5070028;28;20503;-73
2023/05/06 10:06:14;;;;;;;1999.90;999.90;;;17.90;99.90;;;;;;5068292;28;21817;-73
2023/05/06 10:08:44;;;;;;;1999.90;999.90;;;18.30;99.90;;;;;;5083754;28;20455;-70
2023/05/06 10:11:13;;;;;;;1999.90;999.90;;;18.60;99.90;;;;;;5075491;28;20446;-71
2023/05/06 10:13:42;;;;;;;1999.90;999.90;;;19.10;99.90;;;;;;5060102;28;21007;-73
2023/05/06 10:16:10;;;;;;;1999.90;999.90;;;19.10;99.90;;;;;;5058147;28;20953;-73
2023/05/06 10:18:38;;;;;;;1999.90;999.90;;;18.90;99.90;;;;;;5049943;28;20425;-73
2023/05/06 10:21:13;;;;;;;1999.90;999.90;;;18.60;99.90;;;;;;5050124;28;20421;-73
2023/05/06 10:23:44;;;;;;;1999.90;999.90;;;18.40;99.90;;;;;;5077357;28;20461;-73
2023/05/06 10:26:11;;;;;;;1999.90;999.90;;;18.50;99.90;;;;;;5067357;28;21070;-73
2023/05/06 10:28:42;;;;;;;1999.90;999.90;;;18.80;99.90;;;;;;5065630;28;20428;-74
2023/05/06 10:31:11;;;;;;;1999.90;999.90;;;19.00;99.90;;;;;;5062572;28;20436;-71
2023/05/06 10:33:38;;;;;;;1999.90;999.90;;;19.10;99.90;;;;;;5067984;28;20518;-73
2023/05/06 10:36:15;;;;;;;1999.90;999.90;;;19.00;99.90;;;;;;5070408;28;20415;-73
2023/05/06 10:38:45;;;;;;;1999.90;999.90;;;18.70;99.90;;;;;;5073567;28;20797;-73
2023/05/06 10:41:13;;;;;;;1999.90;999.90;;;18.50;99.90;;;;;;5073671;28;20511;-70
2023/05/06 10:43:42;;;;;;;1999.90;999.90;;;18.40;99.90;;;;;;5080947;28;20419;-74
2023/05/06 10:46:11;;;;;;;1999.90;999.90;;;18.30;99.90;;;;;;5073405;28;20419;-74
2023/05/06 10:48:39;;;;;;;1999.90;999.90;;;18.30;99.90;;;;;;5072966;28;20407;-73
2023/05/06 10:51:25;;;;;;;1999.90;999.90;;;18.50;99.90;;;;;;5066962;28;20836;-73
2023/05/06 10:53:56;;;;;;;1999.90;999.90;;;18.60;99.90;;;;;;5067962;28;20435;-73
2023/05/06 10:56:23;;;;;;;1999.90;999.90;;;18.50;99.90;;;;;;5072159;28;20435;-74
2023/05/06 10:58:52;;;;;;;1999.90;999.90;;;18.40;99.90;;;;;;5065281;28;20479;-73
2023/05/06 11:01:22;;;;;;;1999.90;999.90;;;18.20;99.90;;;;;;5063646;28;20447;-75
2023/05/06 11:03:51;;;;;;;1999.90;999.90;;;18.00;99.90;;;;;;5080686;28;20411;-73
2023/05/06 11:06:38;;;;;;;1999.90;999.90;;;18.00;99.90;;;;;;5093196;28;20448;-73
2023/05/06 11:09:05;;;;;;;1999.90;999.90;;;18.10;99.90;;;;;;5086807;28;20451;-73
2023/05/06 11:11:53;;;;;;;1999.90;999.90;;;18.50;99.90;;;;;;5065612;28;20440;-73
2023/05/06 11:14:29;;;;;;;1999.90;999.90;;;18.70;99.90;;;;;;5061893;28;20489;-73
2023/05/06 11:16:58;;;;;;;1999.90;999.90;;;18.70;99.90;;;;;;5070572;28;20438;-72
2023/05/06 11:19:25;;;;;;;1999.90;999.90;;;18.80;99.90;;;;;;5070249;28;20951;-70
2023/05/06 11:21:53;;;;;;;1999.90;999.90;;;18.90;99.90;;;;;;5067266;28;21160;-72
2023/05/06 11:24:25;;;;;;;1999.90;999.90;;;19.00;99.90;;;;;;5069434;28;20435;-73
2023/05/06 11:26:52;;;;;;;1999.90;999.90;;;19.30;99.90;;;;;;5071774;28;20497;-72
2023/05/06 11:29:19;;;;;;;1999.90;999.90;;;19.50;99.90;;;;;;5068020;28;20474;-70
2023/05/06 11:31:48;;;;;;;1999.90;999.90;;;19.10;99.90;;;;;;5066168;28;20435;-71
2023/05/06 11:34:21;;;;;;;1999.90;999.90;;;18.80;99.90;;;;;;5067392;28;20439;-72
2023/05/06 11:36:51;;;;;;;1999.90;999.90;;;18.60;99.90;;;;;;5069746;28;20485;-69
2023/05/06 11:39:17;;;;;;;1999.90;999.90;;;18.40;99.90;;;;;;5058378;28;20840;-71
2023/05/06 11:41:44;;;;;;;1999.90;999.90;;;18.40;99.90;;;;;;5071330;28;20948;-72
2023/05/06 11:44:24;;;;;;;1999.90;999.90;;;18.50;99.90;;;;;;5075535;28;21377;-71
2023/05/06 11:46:55;;;;;;;1999.90;999.90;;;18.90;99.90;;;;;;5092884;28;20418;-74
2023/05/06 11:49:22;;;;;;;1999.90;999.90;;;19.30;99.90;;;;;;5079514;28;20479;-72
2023/05/06 11:51:49;;;;;;;1999.90;999.90;;;19.40;99.90;;;;;;5080928;28;20527;-74
2023/05/06 11:54:17;;;;;;;1999.90;999.90;;;19.60;99.90;;;;;;5084321;28;20410;-73
2023/05/06 11:56:49;;;;;;;1999.90;999.90;;;19.90;99.90;;;;;;5092247;28;20414;-73
2023/05/06 11:59:17;;;;;;;1999.90;999.90;;;20.30;99.90;;;;;;5091874;28;20457;-73
2023/05/06 12:01:44;;;;;;;1999.90;999.90;;;20.80;99.90;;;;;;5084363;28;20430;-74